sensor_id;sensor_type;location;lat;lon;timestamp;P1;durP1;ratioP1;P2;durP2;ratioP2
25083;SDS011;13075;55.682;37.564;2022-07-24T00:02:06;24.88;;;12.20;;
25083;SDS011;13075;55.682;37.564;2022-07-24T00:04:31;19.08;;;11.20;;
25083;SDS011;13075;55.682;37.564;2022-07-24T00:06:57;17.48;;;11.20;;
25083;SDS011;13075;55.682;37.564;2022-07-24T00:09:23;13.82;;;9.73;;
25083;SDS011;13075;55.682;37.564;2022-07-24T00:11:48;16.50;;;10.55;;
25083;SDS011;13075;55.682;37.564;2022-07-24T00:14:14;17.27;;;10.95;;
25083;SDS011;13075;55.682;37.564;2022-07-24T00:16:39;16.60;;;11.57;;
25083;SDS011;13075;55.682;37.564;2022-07-24T00:19:05;18.40;;;10.57;;
25083;SDS011;13075;55.682;37.564;2022-07-24T00:21:31;17.13;;;11.25;;
25083;SDS011;13075;55.682;37.564;2022-07-24T00:23:56;15.23;;;10.60;;
25083;SDS011;13075;55.682;37.564;2022-07-24T00:26:22;21.00;;;11.10;;
25083;SDS011;13075;55.682;37.564;2022-07-24T00:28:48;14.30;;;10.20;;
25083;SDS011;13075;55.682;37.564;2022-07-24T00:31:14;17.33;;;11.48;;
25083;SDS011;13075;55.682;37.564;2022-07-24T00:33:40;19.38;;;11.80;;
25083;SDS011;13075;55.682;37.564;2022-07-24T00:36:05;14.25;;;11.70;;
25083;SDS011;13075;55.682;37.564;2022-07-24T00:38:32;17.08;;;11.27;;
25083;SDS011;13075;55.682;37.564;2022-07-24T00:40:58;21.95;;;11.27;;
25083;SDS011;13075;55.682;37.564;2022-07-24T00:43:23;15.57;;;10.55;;
25083;SDS011;13075;55.682;37.564;2022-07-24T00:45:49;15.05;;;10.63;;
25083;SDS011;13075;55.682;37.564;2022-07-24T00:48:15;14.25;;;10.57;;
25083;SDS011;13075;55.682;37.564;2022-07-24T00:50:41;14.55;;;10.93;;
25083;SDS011;13075;55.682;37.564;2022-07-24T00:53:08;15.77;;;10.35;;
25083;SDS011;13075;55.682;37.564;2022-07-24T00:55:34;17.88;;;11.40;;
25083;SDS011;13075;55.682;37.564;2022-07-24T00:58:00;11.75;;;10.05;;
25083;SDS011;13075;55.682;37.564;2022-07-24T01:03:07;12.85;;;10.55;;
25083;SDS011;13075;55.682;37.564;2022-07-24T01:05:32;20.33;;;10.60;;
25083;SDS011;13075;55.682;37.564;2022-07-24T01:07:58;19.27;;;10.13;;
25083;SDS011;13075;55.682;37.564;2022-07-24T01:10:24;14.05;;;10.90;;
25083;SDS011;13075;55.682;37.564;2022-07-24T01:12:50;13.07;;;9.57;;
25083;SDS011;13075;55.682;37.564;2022-07-24T01:15:15;13.32;;;11.10;;
25083;SDS011;13075;55.682;37.564;2022-07-24T01:17:41;18.35;;;10.18;;
25083;SDS011;13075;55.682;37.564;2022-07-24T01:20:08;13.05;;;10.02;;
25083;SDS011;13075;55.682;37.564;2022-07-24T01:22:35;12.45;;;9.80;;
25083;SDS011;13075;55.682;37.564;2022-07-24T01:25:01;17.65;;;9.70;;
25083;SDS011;13075;55.682;37.564;2022-07-24T01:27:27;15.50;;;9.32;;
25083;SDS011;13075;55.682;37.564;2022-07-24T01:29:52;12.75;;;9.13;;
25083;SDS011;13075;55.682;37.564;2022-07-24T01:32:18;15.07;;;9.77;;
25083;SDS011;13075;55.682;37.564;2022-07-24T01:34:44;13.25;;;8.65;;
25083;SDS011;13075;55.682;37.564;2022-07-24T01:37:10;14.85;;;9.82;;
25083;SDS011;13075;55.682;37.564;2022-07-24T01:39:36;21.25;;;10.40;;
25083;SDS011;13075;55.682;37.564;2022-07-24T01:42:01;12.55;;;10.00;;
25083;SDS011;13075;55.682;37.564;2022-07-24T01:44:27;13.98;;;10.23;;
25083;SDS011;13075;55.682;37.564;2022-07-24T01:46:53;12.93;;;9.23;;
25083;SDS011;13075;55.682;37.564;2022-07-24T01:49:18;14.82;;;9.73;;
25083;SDS011;13075;55.682;37.564;2022-07-24T01:51:44;15.38;;;8.80;;
25083;SDS011;13075;55.682;37.564;2022-07-24T01:54:09;15.80;;;9.93;;
25083;SDS011;13075;55.682;37.564;2022-07-24T01:56:35;11.80;;;8.50;;
25083;SDS011;13075;55.682;37.564;2022-07-24T01:59:01;11.45;;;10.25;;
25083;SDS011;13075;55.682;37.564;2022-07-24T02:01:27;21.58;;;10.48;;
25083;SDS011;13075;55.682;37.564;2022-07-24T02:03:54;14.27;;;8.63;;
25083;SDS011;13075;55.682;37.564;2022-07-24T02:06:20;14.93;;;9.43;;
25083;SDS011;13075;55.682;37.564;2022-07-24T02:08:45;14.32;;;9.52;;
25083;SDS011;13075;55.682;37.564;2022-07-24T02:11:11;11.25;;;9.00;;
25083;SDS011;13075;55.682;37.564;2022-07-24T02:13:37;14.00;;;8.88;;
25083;SDS011;13075;55.682;37.564;2022-07-24T02:16:03;15.18;;;9.00;;
25083;SDS011;13075;55.682;37.564;2022-07-24T02:18:29;12.05;;;8.43;;
25083;SDS011;13075;55.682;37.564;2022-07-24T02:20:54;9.55;;;7.88;;
25083;SDS011;13075;55.682;37.564;2022-07-24T02:23:20;10.52;;;7.70;;
25083;SDS011;13075;55.682;37.564;2022-07-24T02:25:46;11.70;;;8.27;;
25083;SDS011;13075;55.682;37.564;2022-07-24T02:28:13;17.27;;;8.70;;
25083;SDS011;13075;55.682;37.564;2022-07-24T02:30:39;15.20;;;7.25;;
25083;SDS011;13075;55.682;37.564;2022-07-24T02:33:06;8.70;;;7.80;;
25083;SDS011;13075;55.682;37.564;2022-07-24T02:35:32;10.55;;;7.18;;
25083;SDS011;13075;55.682;37.564;2022-07-24T02:37:57;13.02;;;7.47;;
25083;SDS011;13075;55.682;37.564;2022-07-24T02:40:23;9.27;;;7.90;;
25083;SDS011;13075;55.682;37.564;2022-07-24T02:42:49;11.23;;;7.53;;
25083;SDS011;13075;55.682;37.564;2022-07-24T02:45:14;13.80;;;7.65;;
25083;SDS011;13075;55.682;37.564;2022-07-24T02:47:50;10.85;;;7.05;;
25083;SDS011;13075;55.682;37.564;2022-07-24T02:50:21;7.80;;;6.72;;
25083;SDS011;13075;55.682;37.564;2022-07-24T02:52:49;8.07;;;6.45;;
25083;SDS011;13075;55.682;37.564;2022-07-24T02:55:15;8.00;;;7.20;;
25083;SDS011;13075;55.682;37.564;2022-07-24T02:57:42;11.63;;;6.32;;
25083;SDS011;13075;55.682;37.564;2022-07-24T03:00:08;9.25;;;6.80;;
25083;SDS011;13075;55.682;37.564;2022-07-24T03:02:38;12.18;;;6.55;;
25083;SDS011;13075;55.682;37.564;2022-07-24T03:05:04;14.15;;;7.43;;
25083;SDS011;13075;55.682;37.564;2022-07-24T03:07:31;10.48;;;7.40;;
25083;SDS011;13075;55.682;37.564;2022-07-24T03:09:57;7.32;;;6.03;;
25083;SDS011;13075;55.682;37.564;2022-07-24T03:12:23;7.75;;;6.60;;
25083;SDS011;13075;55.682;37.564;2022-07-24T03:14:48;13.35;;;7.38;;
25083;SDS011;13075;55.682;37.564;2022-07-24T03:17:14;6.40;;;5.80;;
25083;SDS011;13075;55.682;37.564;2022-07-24T03:19:40;13.23;;;5.03;;
25083;SDS011;13075;55.682;37.564;2022-07-24T03:22:05;9.90;;;6.20;;
25083;SDS011;13075;55.682;37.564;2022-07-24T03:24:31;9.02;;;6.95;;
25083;SDS011;13075;55.682;37.564;2022-07-24T03:26:57;11.70;;;6.30;;
25083;SDS011;13075;55.682;37.564;2022-07-24T03:29:22;9.25;;;5.72;;
25083;SDS011;13075;55.682;37.564;2022-07-24T03:31:48;6.45;;;5.85;;
25083;SDS011;13075;55.682;37.564;2022-07-24T03:34:13;9.68;;;5.90;;
25083;SDS011;13075;55.682;37.564;2022-07-24T03:36:39;8.45;;;5.57;;
25083;SDS011;13075;55.682;37.564;2022-07-24T03:39:05;7.38;;;5.05;;
25083;SDS011;13075;55.682;37.564;2022-07-24T03:41:31;6.22;;;4.88;;
25083;SDS011;13075;55.682;37.564;2022-07-24T03:43:57;6.15;;;5.22;;
25083;SDS011;13075;55.682;37.564;2022-07-24T03:46:22;9.77;;;5.00;;
25083;SDS011;13075;55.682;37.564;2022-07-24T03:48:48;11.48;;;6.45;;
25083;SDS011;13075;55.682;37.564;2022-07-24T03:51:14;6.40;;;5.32;;
25083;SDS011;13075;55.682;37.564;2022-07-24T03:53:40;5.93;;;4.88;;
25083;SDS011;13075;55.682;37.564;2022-07-24T03:56:06;7.45;;;4.57;;
25083;SDS011;13075;55.682;37.564;2022-07-24T03:58:34;8.10;;;5.70;;
25083;SDS011;13075;55.682;37.564;2022-07-24T04:01:00;8.75;;;5.82;;
25083;SDS011;13075;55.682;37.564;2022-07-24T04:03:26;7.47;;;6.72;;
25083;SDS011;13075;55.682;37.564;2022-07-24T04:05:51;13.18;;;5.57;;
25083;SDS011;13075;55.682;37.564;2022-07-24T04:08:17;6.00;;;5.07;;
25083;SDS011;13075;55.682;37.564;2022-07-24T04:10:43;6.78;;;4.75;;
25083;SDS011;13075;55.682;37.564;2022-07-24T04:13:09;8.10;;;6.18;;
25083;SDS011;13075;55.682;37.564;2022-07-24T04:15:34;8.15;;;5.47;;
25083;SDS011;13075;55.682;37.564;2022-07-24T04:18:00;10.52;;;5.70;;
25083;SDS011;13075;55.682;37.564;2022-07-24T04:20:26;6.30;;;5.53;;
25083;SDS011;13075;55.682;37.564;2022-07-24T04:22:51;12.85;;;5.22;;
25083;SDS011;13075;55.682;37.564;2022-07-24T04:25:17;8.63;;;5.05;;
25083;SDS011;13075;55.682;37.564;2022-07-24T04:27:43;7.38;;;5.00;;
25083;SDS011;13075;55.682;37.564;2022-07-24T04:30:09;8.45;;;5.18;;
25083;SDS011;13075;55.682;37.564;2022-07-24T04:32:36;10.55;;;5.40;;
25083;SDS011;13075;55.682;37.564;2022-07-24T04:35:17;9.27;;;6.28;;
25083;SDS011;13075;55.682;37.564;2022-07-24T04:37:43;7.45;;;5.03;;
25083;SDS011;13075;55.682;37.564;2022-07-24T04:40:09;5.88;;;5.00;;
25083;SDS011;13075;55.682;37.564;2022-07-24T04:42:35;11.70;;;5.22;;
25083;SDS011;13075;55.682;37.564;2022-07-24T04:45:01;5.40;;;4.95;;
25083;SDS011;13075;55.682;37.564;2022-07-24T04:47:26;6.00;;;5.30;;
25083;SDS011;13075;55.682;37.564;2022-07-24T04:49:52;5.93;;;4.65;;
25083;SDS011;13075;55.682;37.564;2022-07-24T04:52:18;4.55;;;4.07;;
25083;SDS011;13075;55.682;37.564;2022-07-24T04:54:43;6.65;;;5.05;;
25083;SDS011;13075;55.682;37.564;2022-07-24T04:57:09;10.15;;;4.95;;
25083;SDS011;13075;55.682;37.564;2022-07-24T04:59:34;5.53;;;4.32;;
25083;SDS011;13075;55.682;37.564;2022-07-24T05:02:00;4.57;;;4.18;;
25083;SDS011;13075;55.682;37.564;2022-07-24T05:04:26;8.15;;;4.63;;
25083;SDS011;13075;55.682;37.564;2022-07-24T05:06:52;8.63;;;4.60;;
25083;SDS011;13075;55.682;37.564;2022-07-24T05:09:17;6.72;;;4.80;;
25083;SDS011;13075;55.682;37.564;2022-07-24T05:11:43;6.82;;;3.72;;
25083;SDS011;13075;55.682;37.564;2022-07-24T05:14:09;5.22;;;4.00;;
25083;SDS011;13075;55.682;37.564;2022-07-24T05:16:34;5.72;;;4.25;;
25083;SDS011;13075;55.682;37.564;2022-07-24T05:19:00;7.68;;;4.78;;
25083;SDS011;13075;55.682;37.564;2022-07-24T05:21:26;5.28;;;4.68;;
25083;SDS011;13075;55.682;37.564;2022-07-24T05:23:51;12.75;;;4.15;;
25083;SDS011;13075;55.682;37.564;2022-07-24T05:26:17;5.40;;;4.50;;
25083;SDS011;13075;55.682;37.564;2022-07-24T05:28:43;8.05;;;4.00;;
25083;SDS011;13075;55.682;37.564;2022-07-24T05:31:08;6.07;;;4.75;;
25083;SDS011;13075;55.682;37.564;2022-07-24T05:33:34;7.25;;;4.50;;
25083;SDS011;13075;55.682;37.564;2022-07-24T05:36:00;4.93;;;4.30;;
25083;SDS011;13075;55.682;37.564;2022-07-24T05:38:26;7.25;;;4.57;;
25083;SDS011;13075;55.682;37.564;2022-07-24T05:40:51;11.57;;;5.15;;
25083;SDS011;13075;55.682;37.564;2022-07-24T05:43:17;8.13;;;4.90;;
25083;SDS011;13075;55.682;37.564;2022-07-24T05:45:43;5.97;;;4.78;;
25083;SDS011;13075;55.682;37.564;2022-07-24T05:48:09;7.30;;;4.20;;
25083;SDS011;13075;55.682;37.564;2022-07-24T05:50:34;5.25;;;3.85;;
25083;SDS011;13075;55.682;37.564;2022-07-24T05:53:00;4.30;;;3.90;;
25083;SDS011;13075;55.682;37.564;2022-07-24T05:55:25;6.03;;;4.00;;
25083;SDS011;13075;55.682;37.564;2022-07-24T05:57:51;7.88;;;3.53;;
25083;SDS011;13075;55.682;37.564;2022-07-24T06:00:17;5.85;;;3.95;;
25083;SDS011;13075;55.682;37.564;2022-07-24T06:02:47;4.50;;;3.90;;
25083;SDS011;13075;55.682;37.564;2022-07-24T06:05:16;4.15;;;3.72;;
25083;SDS011;13075;55.682;37.564;2022-07-24T06:07:42;5.55;;;4.50;;
25083;SDS011;13075;55.682;37.564;2022-07-24T06:10:08;3.80;;;3.50;;
25083;SDS011;13075;55.682;37.564;2022-07-24T06:12:34;7.55;;;4.45;;
25083;SDS011;13075;55.682;37.564;2022-07-24T06:14:59;5.88;;;3.90;;
25083;SDS011;13075;55.682;37.564;2022-07-24T06:17:25;6.13;;;3.70;;
25083;SDS011;13075;55.682;37.564;2022-07-24T06:19:51;3.78;;;3.38;;
25083;SDS011;13075;55.682;37.564;2022-07-24T06:22:16;4.15;;;3.78;;
25083;SDS011;13075;55.682;37.564;2022-07-24T06:24:42;4.70;;;4.28;;
25083;SDS011;13075;55.682;37.564;2022-07-24T06:27:08;4.65;;;4.25;;
25083;SDS011;13075;55.682;37.564;2022-07-24T06:29:33;4.18;;;3.88;;
25083;SDS011;13075;55.682;37.564;2022-07-24T06:31:59;4.50;;;4.20;;
25083;SDS011;13075;55.682;37.564;2022-07-24T06:34:25;4.80;;;4.40;;
25083;SDS011;13075;55.682;37.564;2022-07-24T06:36:51;5.15;;;4.70;;
25083;SDS011;13075;55.682;37.564;2022-07-24T06:39:17;4.75;;;4.07;;
25083;SDS011;13075;55.682;37.564;2022-07-24T06:41:43;4.10;;;3.70;;
25083;SDS011;13075;55.682;37.564;2022-07-24T06:44:22;4.82;;;4.25;;
25083;SDS011;13075;55.682;37.564;2022-07-24T06:46:48;7.43;;;3.75;;
25083;SDS011;13075;55.682;37.564;2022-07-24T06:49:14;3.95;;;3.55;;
25083;SDS011;13075;55.682;37.564;2022-07-24T06:51:40;4.95;;;4.55;;
25083;SDS011;13075;55.682;37.564;2022-07-24T06:54:06;4.05;;;3.65;;
25083;SDS011;13075;55.682;37.564;2022-07-24T06:56:31;4.88;;;3.50;;
25083;SDS011;13075;55.682;37.564;2022-07-24T06:58:57;4.65;;;3.53;;
25083;SDS011;13075;55.682;37.564;2022-07-24T07:01:24;5.97;;;3.45;;
25083;SDS011;13075;55.682;37.564;2022-07-24T07:03:54;3.97;;;3.67;;
25083;SDS011;13075;55.682;37.564;2022-07-24T07:06:19;16.15;;;3.47;;
25083;SDS011;13075;55.682;37.564;2022-07-24T07:08:45;3.30;;;3.00;;
25083;SDS011;13075;55.682;37.564;2022-07-24T07:11:11;3.83;;;3.15;;
25083;SDS011;13075;55.682;37.564;2022-07-24T07:13:37;5.10;;;3.00;;
25083;SDS011;13075;55.682;37.564;2022-07-24T07:16:02;5.65;;;3.10;;
25083;SDS011;13075;55.682;37.564;2022-07-24T07:18:28;3.00;;;2.80;;
25083;SDS011;13075;55.682;37.564;2022-07-24T07:20:54;6.82;;;2.55;;
25083;SDS011;13075;55.682;37.564;2022-07-24T07:23:21;3.00;;;2.70;;
25083;SDS011;13075;55.682;37.564;2022-07-24T07:25:48;2.85;;;2.65;;
25083;SDS011;13075;55.682;37.564;2022-07-24T07:28:14;2.78;;;2.33;;
25083;SDS011;13075;55.682;37.564;2022-07-24T07:30:40;3.22;;;3.03;;
25083;SDS011;13075;55.682;37.564;2022-07-24T07:33:06;3.08;;;2.88;;
25083;SDS011;13075;55.682;37.564;2022-07-24T07:35:31;3.20;;;2.75;;
25083;SDS011;13075;55.682;37.564;2022-07-24T07:37:57;2.88;;;2.67;;
25083;SDS011;13075;55.682;37.564;2022-07-24T07:40:24;4.22;;;3.10;;
25083;SDS011;13075;55.682;37.564;2022-07-24T07:42:50;3.30;;;3.08;;
25083;SDS011;13075;55.682;37.564;2022-07-24T07:45:15;5.40;;;3.20;;
25083;SDS011;13075;55.682;37.564;2022-07-24T07:47:41;2.72;;;2.53;;
25083;SDS011;13075;55.682;37.564;2022-07-24T07:50:07;2.92;;;2.72;;
25083;SDS011;13075;55.682;37.564;2022-07-24T07:52:34;4.72;;;2.67;;
25083;SDS011;13075;55.682;37.564;2022-07-24T07:54:59;3.47;;;2.70;;
25083;SDS011;13075;55.682;37.564;2022-07-24T07:57:25;4.13;;;2.70;;
25083;SDS011;13075;55.682;37.564;2022-07-24T07:59:50;3.90;;;2.85;;
25083;SDS011;13075;55.682;37.564;2022-07-24T08:02:16;3.22;;;2.20;;
25083;SDS011;13075;55.682;37.564;2022-07-24T08:04:42;4.45;;;2.60;;
25083;SDS011;13075;55.682;37.564;2022-07-24T08:07:07;3.22;;;2.92;;
25083;SDS011;13075;55.682;37.564;2022-07-24T08:09:33;2.92;;;2.72;;
25083;SDS011;13075;55.682;37.564;2022-07-24T08:11:58;2.78;;;2.58;;
25083;SDS011;13075;55.682;37.564;2022-07-24T08:14:24;3.38;;;2.92;;
25083;SDS011;13075;55.682;37.564;2022-07-24T08:16:50;4.25;;;3.03;;
25083;SDS011;13075;55.682;37.564;2022-07-24T08:19:15;2.90;;;2.70;;
25083;SDS011;13075;55.682;37.564;2022-07-24T08:21:41;2.53;;;2.40;;
25083;SDS011;13075;55.682;37.564;2022-07-24T08:24:07;2.75;;;2.65;;
25083;SDS011;13075;55.682;37.564;2022-07-24T08:26:32;7.07;;;3.58;;
25083;SDS011;13075;55.682;37.564;2022-07-24T08:28:58;3.78;;;3.47;;
25083;SDS011;13075;55.682;37.564;2022-07-24T08:31:27;2.47;;;2.25;;
25083;SDS011;13075;55.682;37.564;2022-07-24T08:33:53;3.03;;;2.83;;
25083;SDS011;13075;55.682;37.564;2022-07-24T08:36:19;2.88;;;2.78;;
25083;SDS011;13075;55.682;37.564;2022-07-24T08:38:44;3.70;;;3.03;;
25083;SDS011;13075;55.682;37.564;2022-07-24T08:41:10;2.67;;;2.47;;
25083;SDS011;13075;55.682;37.564;2022-07-24T08:43:37;2.90;;;2.70;;
25083;SDS011;13075;55.682;37.564;2022-07-24T08:46:03;8.80;;;5.38;;
25083;SDS011;13075;55.682;37.564;2022-07-24T08:48:33;4.82;;;4.43;;
25083;SDS011;13075;55.682;37.564;2022-07-24T08:50:59;6.05;;;4.97;;
25083;SDS011;13075;55.682;37.564;2022-07-24T08:53:25;3.03;;;2.83;;
25083;SDS011;13075;55.682;37.564;2022-07-24T08:55:50;2.97;;;2.78;;
25083;SDS011;13075;55.682;37.564;2022-07-24T08:58:16;3.92;;;2.53;;
25083;SDS011;13075;55.682;37.564;2022-07-24T09:00:42;4.47;;;3.22;;
25083;SDS011;13075;55.682;37.564;2022-07-24T09:03:08;3.47;;;3.05;;
25083;SDS011;13075;55.682;37.564;2022-07-24T09:05:38;4.25;;;3.33;;
25083;SDS011;13075;55.682;37.564;2022-07-24T09:08:18;5.97;;;3.63;;
25083;SDS011;13075;55.682;37.564;2022-07-24T09:11:00;5.20;;;3.80;;
25083;SDS011;13075;55.682;37.564;2022-07-24T09:13:30;4.63;;;3.35;;
25083;SDS011;13075;55.682;37.564;2022-07-24T09:16:19;9.07;;;3.40;;
25083;SDS011;13075;55.682;37.564;2022-07-24T09:19:03;4.40;;;3.60;;
25083;SDS011;13075;55.682;37.564;2022-07-24T09:21:37;3.53;;;3.33;;
25083;SDS011;13075;55.682;37.564;2022-07-24T09:24:24;3.72;;;3.42;;
25083;SDS011;13075;55.682;37.564;2022-07-24T09:26:52;4.20;;;3.25;;
25083;SDS011;13075;55.682;37.564;2022-07-24T09:29:20;4.65;;;4.25;;
25083;SDS011;13075;55.682;37.564;2022-07-24T09:31:49;4.93;;;3.30;;
25083;SDS011;13075;55.682;37.564;2022-07-24T09:34:16;6.38;;;4.28;;
25083;SDS011;13075;55.682;37.564;2022-07-24T09:36:42;4.20;;;3.67;;
25083;SDS011;13075;55.682;37.564;2022-07-24T09:39:20;5.85;;;3.90;;
25083;SDS011;13075;55.682;37.564;2022-07-24T09:41:50;4.85;;;4.13;;
25083;SDS011;13075;55.682;37.564;2022-07-24T09:44:17;5.03;;;3.72;;
25083;SDS011;13075;55.682;37.564;2022-07-24T09:46:47;4.47;;;3.38;;
25083;SDS011;13075;55.682;37.564;2022-07-24T09:49:19;3.63;;;3.33;;
25083;SDS011;13075;55.682;37.564;2022-07-24T09:51:49;4.53;;;4.07;;
25083;SDS011;13075;55.682;37.564;2022-07-24T09:54:35;5.57;;;3.17;;
25083;SDS011;13075;55.682;37.564;2022-07-24T09:57:18;4.13;;;3.50;;
25083;SDS011;13075;55.682;37.564;2022-07-24T09:59:48;3.72;;;3.30;;
25083;SDS011;13075;55.682;37.564;2022-07-24T10:02:14;3.95;;;3.03;;
25083;SDS011;13075;55.682;37.564;2022-07-24T10:04:42;4.10;;;3.75;;
25083;SDS011;13075;55.682;37.564;2022-07-24T10:07:12;4.47;;;4.18;;
25083;SDS011;13075;55.682;37.564;2022-07-24T10:09:41;5.88;;;3.00;;
25083;SDS011;13075;55.682;37.564;2022-07-24T10:12:12;3.53;;;3.22;;
25083;SDS011;13075;55.682;37.564;2022-07-24T10:14:47;4.93;;;3.35;;
25083;SDS011;13075;55.682;37.564;2022-07-24T10:17:14;5.53;;;3.92;;
25083;SDS011;13075;55.682;37.564;2022-07-24T10:19:41;3.60;;;3.30;;
25083;SDS011;13075;55.682;37.564;2022-07-24T10:22:15;6.97;;;3.67;;
25083;SDS011;13075;55.682;37.564;2022-07-24T10:24:51;3.38;;;3.17;;
25083;SDS011;13075;55.682;37.564;2022-07-24T10:27:25;4.63;;;4.22;;
25083;SDS011;13075;55.682;37.564;2022-07-24T10:29:55;5.45;;;3.85;;
25083;SDS011;13075;55.682;37.564;2022-07-24T10:32:24;4.10;;;3.70;;
25083;SDS011;13075;55.682;37.564;2022-07-24T10:37:31;4.43;;;3.45;;
25083;SDS011;13075;55.682;37.564;2022-07-24T10:53:22;3.92;;;3.63;;
25083;SDS011;13075;55.682;37.564;2022-07-24T11:01:34;4.03;;;3.45;;
25083;SDS011;13075;55.682;37.564;2022-07-24T11:04:05;4.72;;;4.22;;
25083;SDS011;13075;55.682;37.564;2022-07-24T11:09:55;4.15;;;3.75;;
25083;SDS011;13075;55.682;37.564;2022-07-24T11:12:28;5.07;;;4.65;;
25083;SDS011;13075;55.682;37.564;2022-07-24T11:18:14;3.83;;;3.33;;
25083;SDS011;13075;55.682;37.564;2022-07-24T11:20:40;4.30;;;3.53;;
25083;SDS011;13075;55.682;37.564;2022-07-24T11:23:19;5.20;;;3.50;;
25083;SDS011;13075;55.682;37.564;2022-07-24T11:25:46;3.83;;;3.53;;
25083;SDS011;13075;55.682;37.564;2022-07-24T11:28:12;4.68;;;4.20;;
25083;SDS011;13075;55.682;37.564;2022-07-24T11:30:42;4.03;;;3.72;;
25083;SDS011;13075;55.682;37.564;2022-07-24T11:33:10;4.55;;;4.15;;
25083;SDS011;13075;55.682;37.564;2022-07-24T11:35:37;5.13;;;4.00;;
25083;SDS011;13075;55.682;37.564;2022-07-24T11:38:04;5.45;;;3.83;;
25083;SDS011;13075;55.682;37.564;2022-07-24T11:40:33;5.60;;;3.92;;
25083;SDS011;13075;55.682;37.564;2022-07-24T11:43:01;4.03;;;3.70;;
25083;SDS011;13075;55.682;37.564;2022-07-24T11:45:29;3.83;;;3.47;;
25083;SDS011;13075;55.682;37.564;2022-07-24T11:47:54;5.57;;;4.95;;
25083;SDS011;13075;55.682;37.564;2022-07-24T11:50:22;4.22;;;3.83;;
25083;SDS011;13075;55.682;37.564;2022-07-24T11:52:49;6.82;;;4.82;;
25083;SDS011;13075;55.682;37.564;2022-07-24T11:55:16;9.68;;;4.40;;
25083;SDS011;13075;55.682;37.564;2022-07-24T11:57:44;4.30;;;3.97;;
25083;SDS011;13075;55.682;37.564;2022-07-24T12:00:12;5.22;;;3.60;;
25083;SDS011;13075;55.682;37.564;2022-07-24T12:02:50;4.85;;;4.43;;
25083;SDS011;13075;55.682;37.564;2022-07-24T12:07:53;4.70;;;3.85;;
25083;SDS011;13075;55.682;37.564;2022-07-24T12:10:24;4.40;;;4.00;;
25083;SDS011;13075;55.682;37.564;2022-07-24T12:12:51;4.40;;;4.00;;
25083;SDS011;13075;55.682;37.564;2022-07-24T12:15:22;6.78;;;5.63;;
25083;SDS011;13075;55.682;37.564;2022-07-24T12:17:59;4.85;;;4.35;;
25083;SDS011;13075;55.682;37.564;2022-07-24T12:20:26;6.47;;;3.78;;
25083;SDS011;13075;55.682;37.564;2022-07-24T12:22:53;5.63;;;4.45;;
25083;SDS011;13075;55.682;37.564;2022-07-24T12:25:20;3.85;;;3.45;;
25083;SDS011;13075;55.682;37.564;2022-07-24T12:27:46;8.23;;;4.53;;
25083;SDS011;13075;55.682;37.564;2022-07-24T12:33:02;6.85;;;3.88;;
25083;SDS011;13075;55.682;37.564;2022-07-24T12:35:30;5.70;;;4.05;;
25083;SDS011;13075;55.682;37.564;2022-07-24T12:38:22;4.43;;;4.13;;
25083;SDS011;13075;55.682;37.564;2022-07-24T12:43:33;4.95;;;4.25;;
25083;SDS011;13075;55.682;37.564;2022-07-24T12:46:20;7.38;;;5.53;;
25083;SDS011;13075;55.682;37.564;2022-07-24T12:54:14;5.40;;;3.95;;
25083;SDS011;13075;55.682;37.564;2022-07-24T12:57:01;6.72;;;4.40;;
25083;SDS011;13075;55.682;37.564;2022-07-24T12:59:37;5.70;;;4.03;;
25083;SDS011;13075;55.682;37.564;2022-07-24T13:04:31;4.18;;;3.72;;
25083;SDS011;13075;55.682;37.564;2022-07-24T13:06:58;5.85;;;3.80;;
25083;SDS011;13075;55.682;37.564;2022-07-24T13:09:25;5.70;;;3.80;;
25083;SDS011;13075;55.682;37.564;2022-07-24T13:11:52;4.25;;;3.95;;
25083;SDS011;13075;55.682;37.564;2022-07-24T13:14:19;5.93;;;4.15;;
25083;SDS011;13075;55.682;37.564;2022-07-24T13:16:47;4.25;;;3.92;;
25083;SDS011;13075;55.682;37.564;2022-07-24T13:19:14;7.07;;;3.33;;
25083;SDS011;13075;55.682;37.564;2022-07-24T13:21:41;6.13;;;3.72;;
25083;SDS011;13075;55.682;37.564;2022-07-24T13:24:10;4.25;;;3.85;;
25083;SDS011;13075;55.682;37.564;2022-07-24T13:26:37;6.47;;;4.10;;
25083;SDS011;13075;55.682;37.564;2022-07-24T13:29:04;5.45;;;4.38;;
25083;SDS011;13075;55.682;37.564;2022-07-24T13:31:30;5.05;;;4.50;;
25083;SDS011;13075;55.682;37.564;2022-07-24T13:33:56;5.22;;;4.18;;
25083;SDS011;13075;55.682;37.564;2022-07-24T13:36:22;9.07;;;8.18;;
25083;SDS011;13075;55.682;37.564;2022-07-24T13:38:48;6.85;;;5.55;;
25083;SDS011;13075;55.682;37.564;2022-07-24T13:41:14;8.00;;;4.53;;
25083;SDS011;13075;55.682;37.564;2022-07-24T13:43:42;5.22;;;3.97;;
25083;SDS011;13075;55.682;37.564;2022-07-24T13:46:08;4.47;;;3.72;;
25083;SDS011;13075;55.682;37.564;2022-07-24T13:48:33;4.25;;;3.92;;
25083;SDS011;13075;55.682;37.564;2022-07-24T13:50:59;5.75;;;3.78;;
25083;SDS011;13075;55.682;37.564;2022-07-24T13:53:25;6.00;;;4.40;;
25083;SDS011;13075;55.682;37.564;2022-07-24T13:55:50;6.93;;;3.70;;
25083;SDS011;13075;55.682;37.564;2022-07-24T13:58:16;4.75;;;4.22;;
25083;SDS011;13075;55.682;37.564;2022-07-24T14:00:42;7.15;;;5.05;;
25083;SDS011;13075;55.682;37.564;2022-07-24T14:03:08;6.60;;;4.55;;
25083;SDS011;13075;55.682;37.564;2022-07-24T14:05:34;8.95;;;3.80;;
25083;SDS011;13075;55.682;37.564;2022-07-24T14:08:00;5.93;;;5.40;;
25083;SDS011;13075;55.682;37.564;2022-07-24T14:10:25;3.85;;;3.55;;
25083;SDS011;13075;55.682;37.564;2022-07-24T14:12:51;5.05;;;3.88;;
25083;SDS011;13075;55.682;37.564;2022-07-24T14:15:17;5.38;;;4.35;;
25083;SDS011;13075;55.682;37.564;2022-07-24T14:17:43;6.60;;;3.85;;
25083;SDS011;13075;55.682;37.564;2022-07-24T14:20:10;3.80;;;3.47;;
25083;SDS011;13075;55.682;37.564;2022-07-24T14:22:37;5.20;;;4.70;;
25083;SDS011;13075;55.682;37.564;2022-07-24T14:25:04;4.05;;;3.75;;
25083;SDS011;13075;55.682;37.564;2022-07-24T14:27:31;4.32;;;3.92;;
25083;SDS011;13075;55.682;37.564;2022-07-24T14:29:57;4.80;;;3.95;;
25083;SDS011;13075;55.682;37.564;2022-07-24T14:32:23;5.18;;;4.68;;
25083;SDS011;13075;55.682;37.564;2022-07-24T14:34:49;5.47;;;4.05;;
25083;SDS011;13075;55.682;37.564;2022-07-24T14:37:15;4.90;;;4.38;;
25083;SDS011;13075;55.682;37.564;2022-07-24T14:39:41;4.38;;;3.97;;
25083;SDS011;13075;55.682;37.564;2022-07-24T14:42:07;5.25;;;4.10;;
25083;SDS011;13075;55.682;37.564;2022-07-24T14:44:33;11.13;;;4.07;;
25083;SDS011;13075;55.682;37.564;2022-07-24T14:46:59;8.55;;;4.80;;
25083;SDS011;13075;55.682;37.564;2022-07-24T14:49:26;4.07;;;3.67;;
25083;SDS011;13075;55.682;37.564;2022-07-24T14:51:52;5.00;;;4.47;;
25083;SDS011;13075;55.682;37.564;2022-07-24T14:54:18;7.00;;;4.22;;
25083;SDS011;13075;55.682;37.564;2022-07-24T14:56:44;4.97;;;4.07;;
25083;SDS011;13075;55.682;37.564;2022-07-24T14:59:10;7.00;;;3.58;;
25083;SDS011;13075;55.682;37.564;2022-07-24T15:01:36;4.60;;;3.80;;
25083;SDS011;13075;55.682;37.564;2022-07-24T15:04:02;4.55;;;3.80;;
25083;SDS011;13075;55.682;37.564;2022-07-24T15:06:28;4.95;;;4.32;;
25083;SDS011;13075;55.682;37.564;2022-07-24T15:08:54;4.22;;;3.83;;
25083;SDS011;13075;55.682;37.564;2022-07-24T15:11:19;7.45;;;5.68;;
25083;SDS011;13075;55.682;37.564;2022-07-24T15:13:49;6.75;;;4.13;;
25083;SDS011;13075;55.682;37.564;2022-07-24T15:16:15;4.85;;;4.00;;
25083;SDS011;13075;55.682;37.564;2022-07-24T15:18:41;4.07;;;3.78;;